Canton, New York
Current Conditions -  °F | °C
As of 9:07 PM on Saturday 22 Nov 2014 (Local Time) from KMSS Reporting Station
Light Rain Light Rain  
Wind Chill: 30°   Ceiling: 600
Heat Index: 38°   Visibility: 3mi
Dew Point: 37°   Wind: 12mph
Humidity: 97%   Direction: 220°SW
Pressure: 29.92"   Gusts: NA
Location:  44.6°N, 75.17°W
Report Text: KMSS 230207Z AUTO 22010KT 3SM -RA BR OVC006 03/03 A2992 RMK AO2 CIG 005V010 P0000 T00330028
Loading
Personal Weather Stations






























Interactive Weather Map New forecast layout! Learn more

10-Day Weather Forecast

Advertisements
Track Severe Weather on mobile